PWSweather.com
Personal Weather Stations
Station Observations
828767
Clearbrook, ClearbrookGB PL6

ClearbrookClearbrookGB PL6

Lat: 50.458829, Lon: -4.093856

Elevation: 453

Station Type: Davis Vantage Pro 2 Plus

http://www.dartmoorwalker.co.uk/weather

Latest ConditionsUpdated 4:20:02 AM GMT Friday, Dec 14, 2018
Currently Today's Max Today's Min Today's Average
Temperature 39.6°F4.2°C 41.4°F5.2°C 38.7°F3.7°C 39.6°F4.2°C
Dew Point 35.2°F1.8°C 35.2°F1.8°C 33.3°F0.7°C 34.1°F1.2°C
Winds 2.0 mph ESE3.2 kmh ESE 5.0 mph -8.0 kmh - - 1.7 mph 2.7 kmh
Wind Gusts 8.0 mph12.9 kmh 14.0 mph22.5 kmh - -
Humidity 84% 84% 76% 80%
Pressure 29.58 in1001.7 mb 29.59 in1002.0 mb 29.53 in1000.0 mb -
Hour Temp Dew Point Humidity Winds Wind Gusts Pressure Precip Precip Rate Daily Precip Total
04:20 AM 39.6°F4.2°C 35.2°F1.8°C 84% 2.0 mph ESE3.2 kmh ESE 8.0 mph12.9 kmh 29.58 in1001.7 mb 0.00 in0.0 mm 0.00 in0.0 mm 0.00 in0.0 mm
04:10 AM 39.6°F4.2°C 34.9°F1.6°C 83% 2.0 mph E3.2 kmh E 6.0 mph9.7 kmh 29.58 in1001.7 mb 0.00 in0.0 mm 0.00 in0.0 mm 0.00 in0.0 mm
04:00 AM 39.6°F4.2°C 34.9°F1.6°C 83% 1.0 mph E1.6 kmh E 6.0 mph9.7 kmh 29.58 in1001.7 mb 0.00 in0.0 mm 0.00 in0.0 mm 0.00 in0.0 mm
03:50 AM 39.6°F4.2°C 34.9°F1.6°C 83% 1.0 mph ESE1.6 kmh ESE 9.0 mph14.5 kmh 29.59 in1002.0 mb 0.00 in0.0 mm 0.00 in0.0 mm 0.00 in0.0 mm
03:40 AM 39.6°F4.2°C 34.9°F1.6°C 83% 1.0 mph ESE1.6 kmh ESE 6.0 mph9.7 kmh 29.59 in1002.0 mb 0.00 in0.0 mm 0.00 in0.0 mm 0.00 in0.0 mm
03:30 AM 39.6°F4.2°C 34.7°F1.5°C 83% Calm Calm 4.0 mph6.4 kmh 29.59 in1002.0 mb 0.00 in0.0 mm 0.00 in0.0 mm 0.00 in0.0 mm
03:20 AM 39.6°F4.2°C 34.5°F1.4°C 82% Calm Calm 4.0 mph6.4 kmh 29.58 in1001.7 mb 0.00 in0.0 mm 0.00 in0.0 mm 0.00 in0.0 mm
03:10 AM 39.6°F4.2°C 34.5°F1.4°C 82% Calm Calm 5.0 mph8.0 kmh 29.58 in1001.7 mb 0.00 in0.0 mm 0.00 in0.0 mm 0.00 in0.0 mm
03:00 AM 39.4°F4.1°C 34.0°F1.1°C 81% 1.0 mph ESE1.6 kmh ESE 5.0 mph8.0 kmh 29.58 in1001.7 mb 0.00 in0.0 mm 0.00 in0.0 mm 0.00 in0.0 mm
02:50 AM 39.4°F4.1°C 34.3°F1.3°C 82% Calm Calm 1.0 mph1.6 kmh 29.58 in1001.7 mb 0.00 in0.0 mm 0.00 in0.0 mm 0.00 in0.0 mm
02:40 AM 39.4°F4.1°C 34.0°F1.1°C 81% Calm Calm 2.0 mph3.2 kmh 29.58 in1001.7 mb 0.00 in0.0 mm 0.00 in0.0 mm 0.00 in0.0 mm
02:30 AM 39.4°F4.1°C 34.0°F1.1°C 81% Calm Calm 2.0 mph3.2 kmh 29.58 in1001.7 mb 0.00 in0.0 mm 0.00 in0.0 mm 0.00 in0.0 mm
02:20 AM 39.2°F4.0°C 33.8°F1.0°C 81% Calm Calm 3.0 mph4.8 kmh 29.57 in1001.4 mb 0.00 in0.0 mm 0.00 in0.0 mm 0.00 in0.0 mm
02:10 AM 39.0°F3.9°C 33.8°F1.0°C 81% 1.0 mph E1.6 kmh E 6.0 mph9.7 kmh 29.57 in1001.4 mb 0.00 in0.0 mm 0.00 in0.0 mm 0.00 in0.0 mm
02:00 AM 38.8°F3.8°C 33.6°F0.9°C 81% 1.0 mph E1.6 kmh E 5.0 mph8.0 kmh 29.57 in1001.4 mb 0.00 in0.0 mm 0.00 in0.0 mm 0.00 in0.0 mm
01:50 AM 38.8°F3.8°C 33.4°F0.8°C 81% 1.0 mph E1.6 kmh E 4.0 mph6.4 kmh 29.57 in1001.4 mb 0.00 in0.0 mm 0.00 in0.0 mm 0.00 in0.0 mm
01:40 AM 38.7°F3.7°C 33.4°F0.8°C 81% Calm Calm 3.0 mph4.8 kmh 29.56 in1001.0 mb 0.00 in0.0 mm 0.00 in0.0 mm 0.00 in0.0 mm
01:30 AM 38.8°F3.8°C 33.3°F0.7°C 80% Calm Calm 6.0 mph9.7 kmh 29.56 in1001.0 mb 0.00 in0.0 mm 0.00 in0.0 mm 0.00 in0.0 mm
01:20 AM 39.0°F3.9°C 33.4°F0.8°C 80% 1.0 mph SE1.6 kmh SE 4.0 mph6.4 kmh 29.56 in1001.0 mb 0.00 in0.0 mm 0.00 in0.0 mm 0.00 in0.0 mm
01:10 AM 39.6°F4.2°C 33.4°F0.8°C 79% 3.0 mph E4.8 kmh E 7.0 mph11.3 kmh 29.55 in1000.7 mb 0.00 in0.0 mm 0.00 in0.0 mm 0.00 in0.0 mm
01:00 AM 39.7°F4.3°C 33.8°F1.0°C 79% 4.0 mph E6.4 kmh E 9.0 mph14.5 kmh 29.55 in1000.7 mb 0.00 in0.0 mm 0.00 in0.0 mm 0.00 in0.0 mm
12:50 AM 39.9°F4.4°C 33.6°F0.9°C 78% 5.0 mph E8.0 kmh E 12.0 mph19.3 kmh 29.54 in1000.3 mb 0.00 in0.0 mm 0.00 in0.0 mm 0.00 in0.0 mm
12:40 AM 39.9°F4.4°C 33.4°F0.8°C 77% 4.0 mph E6.4 kmh E 11.0 mph17.7 kmh 29.54 in1000.3 mb 0.00 in0.0 mm 0.00 in0.0 mm 0.00 in0.0 mm
12:30 AM 40.5°F4.7°C 33.8°F1.0°C 77% 5.0 mph E8.0 kmh E 13.0 mph20.9 kmh 29.54 in1000.3 mb 0.00 in0.0 mm 0.00 in0.0 mm 0.00 in0.0 mm
12:20 AM 40.8°F4.9°C 33.8°F1.0°C 76% 4.0 mph E6.4 kmh E 10.0 mph16.1 kmh 29.54 in1000.3 mb 0.00 in0.0 mm 0.00 in0.0 mm 0.00 in0.0 mm
12:10 AM 41.2°F5.1°C 34.2°F1.2°C 76% 5.0 mph E8.0 kmh E 14.0 mph22.5 kmh 29.53 in1000.0 mb 0.00 in0.0 mm 0.00 in0.0 mm 0.00 in0.0 mm
12:00 AM 41.4°F5.2°C 34.3°F1.3°C 76% 5.0 mph E8.0 kmh E 14.0 mph22.5 kmh 29.54 in1000.3 mb 0.00 in0.0 mm 0.00 in0.0 mm 0.00 in0.0 mm